createdAt,value
2018-12-25T00:00:45.588Z,0.90
2018-12-25T00:03:15.471Z,0.83
2018-12-25T00:05:45.280Z,1.00
2018-12-25T00:08:15.222Z,1.03
2018-12-25T00:10:44.965Z,1.00
2018-12-25T00:13:14.957Z,0.97
2018-12-25T00:15:46.173Z,1.20
2018-12-25T00:18:15.783Z,0.90
2018-12-25T00:20:45.420Z,1.23
2018-12-25T00:23:15.439Z,1.50
2018-12-25T00:25:45.246Z,1.43
2018-12-25T00:28:15.163Z,1.50
2018-12-25T00:30:45.191Z,1.47
2018-12-25T00:33:15.003Z,1.47
2018-12-25T00:35:44.917Z,1.63
2018-12-25T00:38:14.883Z,1.50
2018-12-25T00:40:44.725Z,1.90
2018-12-25T00:43:14.492Z,1.60
2018-12-25T00:45:44.485Z,2.23
2018-12-25T00:48:14.402Z,1.97
2018-12-25T00:50:44.358Z,1.53
2018-12-25T00:53:14.015Z,1.60
2018-12-25T00:55:43.724Z,1.70
2018-12-25T00:58:14.689Z,1.60
2018-12-25T01:00:44.566Z,1.50
2018-12-25T01:03:14.413Z,1.43
2018-12-25T01:05:44.214Z,1.60
2018-12-25T01:08:13.962Z,1.80
2018-12-25T01:10:43.851Z,1.83
2018-12-25T01:13:13.647Z,2.17
2018-12-25T01:15:43.411Z,1.97
2018-12-25T01:18:13.178Z,1.60
2018-12-25T01:20:42.991Z,1.73
2018-12-25T01:23:12.959Z,1.83
2018-12-25T01:25:42.522Z,1.70
2018-12-25T01:28:12.301Z,1.77
2018-12-25T01:30:42.107Z,2.27
2018-12-25T01:33:11.899Z,2.37
2018-12-25T01:35:43.660Z,2.87
2018-12-25T01:38:13.549Z,2.73
2018-12-25T01:40:43.602Z,2.67
2018-12-25T01:43:13.696Z,2.47
2018-12-25T01:45:43.490Z,2.60
2018-12-25T01:48:14.791Z,2.90
2018-12-25T01:50:44.655Z,2.67
2018-12-25T01:53:14.556Z,2.60
2018-12-25T01:55:44.382Z,2.30
2018-12-25T01:58:14.212Z,2.47
2018-12-25T02:00:44.015Z,2.70
2018-12-25T02:03:13.782Z,2.60
2018-12-25T02:05:43.550Z,3.00
2018-12-25T02:08:13.629Z,3.20
2018-12-25T02:10:43.283Z,2.80
2018-12-25T02:13:13.100Z,2.90
2018-12-25T02:15:42.954Z,3.40
2018-12-25T02:18:12.930Z,3.00
2018-12-25T02:20:42.735Z,4.30
2018-12-25T02:23:12.893Z,3.60
2018-12-25T02:25:42.673Z,3.67
2018-12-25T02:28:12.484Z,3.63
2018-12-25T02:30:42.336Z,3.70
2018-12-25T02:33:12.222Z,3.87
2018-12-25T02:35:42.131Z,4.33
2018-12-25T02:38:12.096Z,3.70
2018-12-25T02:40:41.857Z,4.67
2018-12-25T02:43:11.667Z,4.10
2018-12-25T02:45:41.444Z,3.70
2018-12-25T02:48:11.602Z,3.87
2018-12-25T02:50:41.802Z,4.13
2018-12-25T02:53:11.568Z,4.43
2018-12-25T02:55:41.276Z,3.93
2018-12-25T02:58:11.114Z,4.27
2018-12-25T03:00:40.888Z,3.80
2018-12-25T03:03:10.797Z,3.70
2018-12-25T03:05:40.652Z,3.87
2018-12-25T03:08:10.532Z,3.87
2018-12-25T03:10:40.378Z,3.50
2018-12-25T03:13:10.301Z,4.00
2018-12-25T03:15:40.204Z,4.50
2018-12-25T03:18:10.000Z,4.63
2018-12-25T03:20:39.889Z,4.43
2018-12-25T03:23:09.741Z,4.57
2018-12-25T03:25:39.535Z,3.93
2018-12-25T03:28:09.290Z,4.13
2018-12-25T03:30:39.066Z,4.40
2018-12-25T03:33:08.779Z,4.37
2018-12-25T03:35:39.955Z,4.43
2018-12-25T03:38:09.784Z,4.20
2018-12-25T03:40:39.758Z,4.20
2018-12-25T03:43:09.708Z,4.60
2018-12-25T03:45:39.482Z,4.60
2018-12-25T03:48:09.418Z,3.87
2018-12-25T03:50:40.561Z,4.53
2018-12-25T03:53:10.408Z,4.27
2018-12-25T03:55:40.271Z,3.57
2018-12-25T03:58:09.988Z,4.43
2018-12-25T04:00:39.873Z,3.93
2018-12-25T04:03:09.644Z,4.30
2018-12-25T04:05:39.600Z,4.37
2018-12-25T04:08:09.471Z,4.20
2018-12-25T04:10:39.364Z,4.83
2018-12-25T04:13:09.256Z,4.90
2018-12-25T04:15:38.944Z,4.80
2018-12-25T04:18:09.036Z,4.53
2018-12-25T04:20:38.927Z,5.27
2018-12-25T04:23:08.748Z,4.57
2018-12-25T04:25:38.600Z,5.93
2018-12-25T04:28:08.374Z,5.63
2018-12-25T04:30:38.303Z,5.33
2018-12-25T04:33:08.354Z,5.83
2018-12-25T04:35:38.141Z,5.33
2018-12-25T04:38:08.077Z,5.90
2018-12-25T04:40:39.205Z,5.93
2018-12-25T04:43:08.902Z,6.13
2018-12-25T04:45:38.708Z,5.80
2018-12-25T04:48:08.580Z,4.73
2018-12-25T04:50:38.435Z,5.27
2018-12-25T04:53:08.352Z,6.03
2018-12-25T04:55:38.220Z,5.90
2018-12-25T04:58:07.873Z,6.30
2018-12-25T05:00:37.859Z,6.37
2018-12-25T05:03:07.781Z,5.90
2018-12-25T05:05:37.545Z,6.40
2018-12-25T05:08:07.448Z,5.73
2018-12-25T05:10:37.327Z,5.97
2018-12-25T05:13:07.185Z,4.37
2018-12-25T05:15:36.996Z,5.87
2018-12-25T05:18:06.953Z,5.50
2018-12-25T05:20:37.950Z,5.63
2018-12-25T05:23:07.969Z,5.53
2018-12-25T05:25:37.981Z,6.00
2018-12-25T05:28:07.803Z,5.80
2018-12-25T05:30:37.744Z,6.23
2018-12-25T05:33:07.692Z,5.47
2018-12-25T05:35:37.574Z,5.97
2018-12-25T05:38:07.363Z,5.20
2018-12-25T05:40:37.260Z,5.97
2018-12-25T05:43:06.915Z,4.57
2018-12-25T05:45:38.056Z,5.17
2018-12-25T05:48:07.853Z,4.77
2018-12-25T05:50:37.686Z,4.80
2018-12-25T05:53:07.428Z,5.13
2018-12-25T05:55:37.325Z,4.90
2018-12-25T05:58:07.103Z,4.70
2018-12-25T06:00:36.872Z,4.50
2018-12-25T06:03:06.749Z,5.07
2018-12-25T06:05:36.599Z,5.00
2018-12-25T06:08:06.369Z,4.70
2018-12-25T06:10:36.083Z,4.73
2018-12-25T06:13:06.169Z,5.10
2018-12-25T06:15:36.173Z,4.80
2018-12-25T06:18:06.024Z,4.90
2018-12-25T06:20:35.737Z,4.50
2018-12-25T06:23:05.497Z,5.07
2018-12-25T06:25:35.281Z,4.83
2018-12-25T06:28:05.274Z,5.23
2018-12-25T06:30:35.052Z,5.73
2018-12-25T06:33:04.716Z,5.30
2018-12-25T06:35:34.530Z,5.00
2018-12-25T06:38:04.491Z,5.03
2018-12-25T06:40:34.254Z,4.60
2018-12-25T06:43:04.169Z,4.60
2018-12-25T06:45:36.437Z,5.23
2018-12-25T06:48:06.274Z,5.27
2018-12-25T06:50:35.990Z,5.40
2018-12-25T06:53:07.040Z,5.50
2018-12-25T06:55:36.936Z,5.43
2018-12-25T06:58:06.636Z,5.50
2018-12-25T07:00:36.412Z,5.63
2018-12-25T07:03:06.196Z,5.27
2018-12-25T07:05:35.976Z,4.67
2018-12-25T07:08:05.741Z,5.10
2018-12-25T07:10:35.632Z,4.80
2018-12-25T07:13:05.434Z,5.30
2018-12-25T07:15:36.447Z,5.62
2018-12-25T07:18:06.184Z,4.97
2018-12-25T07:20:36.447Z,5.13
2018-12-25T07:23:06.247Z,4.77
2018-12-25T07:25:36.098Z,5.10
2018-12-25T07:28:05.746Z,4.03
2018-12-25T07:30:35.615Z,4.43
2018-12-25T07:33:05.373Z,4.73
2018-12-25T07:35:35.186Z,4.93
2018-12-25T07:38:04.944Z,4.60
2018-12-25T07:40:34.941Z,4.17
2018-12-25T07:43:04.848Z,3.63
2018-12-25T07:45:34.687Z,3.97
2018-12-25T07:48:04.697Z,4.57
2018-12-25T07:50:34.597Z,3.93
2018-12-25T07:53:04.465Z,4.63
2018-12-25T07:55:34.240Z,3.97
2018-12-25T07:58:03.920Z,3.60
2018-12-25T08:00:34.404Z,4.13
2018-12-25T08:03:05.523Z,3.63
2018-12-25T08:05:35.453Z,4.43
2018-12-25T08:08:05.291Z,5.03
2018-12-25T08:10:35.167Z,4.80
2018-12-25T08:13:05.286Z,5.65
2018-12-25T08:15:35.137Z,5.37
2018-12-25T08:18:04.899Z,4.30
2018-12-25T08:20:35.012Z,3.93
2018-12-25T08:23:04.772Z,4.07
2018-12-25T08:25:34.446Z,3.93
2018-12-25T08:28:04.161Z,4.20
2018-12-25T08:30:34.017Z,3.63
2018-12-25T10:20:29.770Z,2.45
2018-12-25T10:22:59.406Z,2.70
2018-12-25T10:25:29.225Z,3.03
2018-12-25T10:27:59.059Z,2.50
2018-12-25T10:30:28.652Z,2.93
2018-12-25T10:32:58.411Z,2.80
2018-12-25T10:35:28.169Z,2.20
2018-12-25T10:37:58.026Z,2.27
2018-12-25T10:40:27.883Z,2.07
2018-12-25T10:42:57.520Z,2.30
2018-12-25T10:45:27.381Z,2.73
2018-12-25T10:47:57.231Z,2.23
2018-12-25T10:50:27.144Z,2.57
2018-12-25T10:52:57.029Z,2.50
2018-12-25T10:55:26.769Z,2.43
2018-12-25T10:57:56.338Z,2.20
2018-12-25T11:00:27.349Z,2.40
2018-12-25T11:02:56.860Z,2.23
2018-12-25T11:05:26.358Z,2.23
2018-12-25T11:07:55.917Z,2.17
2018-12-25T11:10:25.417Z,2.80
2018-12-25T11:12:54.930Z,2.10
2018-12-25T11:15:24.634Z,2.60
2018-12-25T11:17:54.151Z,3.00
2018-12-25T11:20:23.669Z,2.27
2018-12-25T11:22:53.237Z,2.60
2018-12-25T11:25:22.794Z,2.13
2018-12-25T11:27:52.322Z,2.40
2018-12-25T11:30:21.884Z,2.53
2018-12-25T11:32:51.454Z,2.83
2018-12-25T11:35:21.032Z,3.03
2018-12-25T11:37:50.545Z,3.27
2018-12-25T11:40:20.097Z,3.23
2018-12-25T11:42:49.676Z,2.77
2018-12-25T11:45:19.217Z,2.87
2018-12-25T11:47:48.799Z,2.87
2018-12-25T11:50:18.306Z,3.27
2018-12-25T11:52:47.833Z,4.10
2018-12-25T11:55:17.491Z,3.80
2018-12-25T11:57:47.009Z,3.33
2018-12-25T12:00:16.583Z,3.23
2018-12-25T12:02:46.161Z,2.83
2018-12-25T12:05:15.951Z,3.07
2018-12-25T12:07:45.785Z,2.77
2018-12-25T12:10:15.633Z,3.07
2018-12-25T12:12:45.390Z,2.97
2018-12-25T12:15:15.222Z,3.40
2018-12-25T12:17:45.080Z,3.60
2018-12-25T12:20:14.946Z,3.23
2018-12-25T12:22:44.767Z,3.30
2018-12-25T12:25:15.809Z,3.20
2018-12-25T12:27:45.558Z,2.87
2018-12-25T12:30:15.541Z,3.20
2018-12-25T12:32:46.722Z,2.77
2018-12-25T12:35:16.489Z,3.10
2018-12-25T12:37:46.680Z,2.70
2018-12-25T12:40:16.640Z,2.73
2018-12-25T12:42:46.545Z,2.70
2018-12-25T12:45:16.531Z,2.93
2018-12-25T12:47:46.364Z,2.57
2018-12-25T12:50:16.165Z,2.40
2018-12-25T12:52:46.034Z,2.47
2018-12-25T12:55:15.767Z,3.07
2018-12-25T12:57:45.577Z,2.90
2018-12-25T13:00:15.451Z,2.93
2018-12-25T13:02:45.290Z,3.60
2018-12-25T13:05:16.217Z,2.83
2018-12-25T13:07:46.107Z,3.20
2018-12-25T13:10:15.825Z,3.00
2018-12-25T13:12:45.805Z,3.27
2018-12-25T13:15:15.470Z,3.13
2018-12-25T13:17:45.442Z,2.63
2018-12-25T13:20:16.770Z,3.00
2018-12-25T13:22:53.862Z,3.07
2018-12-25T13:25:18.199Z,2.77
2018-12-25T13:27:48.193Z,2.93
2018-12-25T13:30:18.087Z,3.30
2018-12-25T13:32:47.850Z,3.50
2018-12-25T13:35:17.749Z,3.13
2018-12-25T13:37:47.814Z,3.33
2018-12-25T13:40:17.609Z,3.87
2018-12-25T13:42:47.614Z,3.20
2018-12-25T13:45:18.673Z,3.40
2018-12-25T13:47:49.933Z,3.50
2018-12-25T13:50:20.029Z,3.70
2018-12-25T13:52:49.841Z,3.53
2018-12-25T13:55:19.808Z,3.43
2018-12-25T13:57:49.692Z,3.10
2018-12-25T14:00:19.506Z,3.50
2018-12-25T14:02:49.432Z,3.20
2018-12-25T14:05:19.157Z,3.23
2018-12-25T14:07:48.937Z,3.90
2018-12-25T14:10:18.820Z,3.60
2018-12-25T14:12:48.789Z,3.90
2018-12-25T14:15:18.602Z,3.00
2018-12-25T14:17:48.558Z,3.90
2018-12-25T14:20:18.475Z,3.80
2018-12-25T14:22:48.142Z,3.27
2018-12-25T14:25:17.863Z,4.15
2018-12-25T14:27:49.050Z,4.03
2018-12-25T14:30:18.885Z,4.03
2018-12-25T14:32:48.624Z,3.73
2018-12-25T14:35:18.697Z,3.77
2018-12-25T14:37:48.543Z,3.93
2018-12-25T14:40:18.400Z,3.77
2018-12-25T14:42:48.270Z,3.60
2018-12-25T14:45:18.012Z,4.30
2018-12-25T14:47:47.926Z,4.00
2018-12-25T14:50:17.781Z,3.77
2018-12-25T14:52:47.657Z,3.33
2018-12-25T14:55:17.563Z,4.10
2018-12-25T14:57:47.445Z,4.10
2018-12-25T15:00:17.189Z,3.93
2018-12-25T15:02:47.251Z,4.17
2018-12-25T15:05:17.006Z,4.20
2018-12-25T15:07:46.854Z,4.33
2018-12-25T15:10:16.604Z,4.70
2018-12-25T15:12:46.382Z,4.23
2018-12-25T15:15:16.282Z,3.77
2018-12-25T15:17:46.460Z,3.80
2018-12-25T15:20:16.138Z,4.17
2018-12-25T15:22:45.941Z,3.93
2018-12-25T15:25:15.913Z,4.10
2018-12-25T15:27:45.777Z,4.10
2018-12-25T15:30:15.672Z,3.87
2018-12-25T15:32:46.665Z,3.60
2018-12-25T15:35:16.357Z,3.70
2018-12-25T15:37:46.347Z,3.63
2018-12-25T15:40:16.385Z,3.77
2018-12-25T15:42:46.317Z,3.27
2018-12-25T15:45:16.097Z,4.17
2018-12-25T15:47:46.183Z,4.00
2018-12-25T15:50:16.032Z,4.20
2018-12-25T15:52:45.677Z,3.80
2018-12-25T15:55:16.740Z,4.00
2018-12-25T15:57:46.498Z,3.90
2018-12-25T16:00:18.569Z,3.40
2018-12-25T16:02:48.358Z,3.90
2018-12-25T16:05:18.211Z,3.87
2018-12-25T16:07:48.050Z,3.90
2018-12-25T16:10:17.965Z,3.70
2018-12-25T16:12:47.866Z,3.37
2018-12-25T16:15:17.873Z,3.63
2018-12-25T16:17:47.834Z,3.93
2018-12-25T16:20:17.604Z,5.63
2018-12-25T16:22:47.659Z,15.17
2018-12-25T16:25:17.315Z,11.80
2018-12-25T16:27:47.387Z,11.77
2018-12-25T16:30:16.892Z,5.97
2018-12-25T16:32:46.428Z,8.90
2018-12-25T16:35:16.088Z,5.90
2018-12-25T16:37:45.691Z,4.70
2018-12-25T16:40:15.391Z,5.60
2018-12-25T16:42:45.235Z,5.03
2018-12-25T16:45:15.104Z,6.13
2018-12-25T16:47:44.938Z,5.80
2018-12-25T16:50:14.691Z,5.73
2018-12-25T16:52:44.217Z,4.20
2018-12-25T16:55:14.077Z,5.07
2018-12-25T16:57:43.913Z,4.63
2018-12-25T17:00:13.774Z,3.87
2018-12-25T17:02:43.318Z,4.13
2018-12-25T17:05:13.216Z,4.50
2018-12-25T17:07:43.138Z,4.30
2018-12-25T17:10:13.045Z,3.97
2018-12-25T17:12:42.898Z,4.17
2018-12-25T17:15:12.476Z,4.50
2018-12-25T17:17:42.328Z,4.40
2018-12-25T17:20:11.952Z,6.03
2018-12-25T17:22:41.786Z,5.50
2018-12-25T17:25:11.806Z,4.83
2018-12-25T17:27:42.906Z,4.90
2018-12-25T17:30:12.689Z,5.57
2018-12-25T17:32:45.239Z,4.93
2018-12-25T17:35:20.503Z,5.00
2018-12-25T17:38:00.289Z,5.57
2018-12-25T17:40:37.690Z,5.33
2018-12-25T17:43:10.527Z,5.00
2018-12-25T17:46:23.129Z,5.00
2018-12-25T17:48:58.096Z,5.30
2018-12-25T17:51:45.406Z,5.73
2018-12-25T17:54:28.252Z,5.20
2018-12-25T17:56:58.821Z,5.43
2018-12-25T17:59:46.377Z,5.33
2018-12-25T18:02:23.503Z,5.20
2018-12-25T18:04:59.190Z,5.33
2018-12-25T18:07:43.402Z,5.70
2018-12-25T18:10:13.593Z,4.93
2018-12-25T18:12:45.254Z,5.80
2018-12-25T18:15:19.719Z,6.33
2018-12-25T18:17:53.620Z,6.07
2018-12-25T18:20:37.162Z,5.20
2018-12-25T18:23:17.717Z,5.50
2018-12-25T18:25:49.918Z,4.63
2018-12-25T18:28:22.984Z,4.97
2018-12-25T18:31:07.590Z,7.67
2018-12-25T18:33:36.974Z,6.40
2018-12-25T18:36:07.109Z,6.13
2018-12-25T18:38:39.986Z,5.67
2018-12-25T18:41:11.947Z,7.13
2018-12-25T18:43:53.731Z,5.10
2018-12-25T18:46:33.279Z,5.23
2018-12-25T18:49:10.579Z,4.63
2018-12-25T18:51:50.719Z,5.27
2018-12-25T18:54:37.210Z,4.80
2018-12-25T18:57:07.568Z,5.43
2018-12-25T18:59:45.639Z,5.63
2018-12-25T19:02:28.725Z,6.33
2018-12-25T19:04:55.773Z,6.00
2018-12-25T19:07:29.402Z,5.43
2018-12-25T19:10:11.897Z,5.97
2018-12-25T19:12:47.981Z,4.30
2018-12-25T19:15:25.436Z,4.07
2018-12-25T19:18:00.686Z,4.30
2018-12-25T19:20:51.079Z,4.87
2018-12-25T19:23:23.370Z,5.10
2018-12-25T19:26:02.314Z,5.20
2018-12-25T19:28:53.207Z,5.87
2018-12-25T19:31:29.062Z,4.90
2018-12-25T19:34:12.822Z,5.90
2018-12-25T19:36:56.545Z,10.00
2018-12-25T19:39:39.731Z,8.00
2018-12-25T19:42:13.443Z,8.00
2018-12-25T19:44:52.461Z,6.73
2018-12-25T19:47:30.131Z,7.97
2018-12-25T19:50:13.284Z,7.13
2018-12-25T19:52:42.515Z,7.37
2018-12-25T19:55:52.201Z,6.97
2018-12-25T19:58:22.480Z,8.90
2018-12-25T20:01:18.315Z,7.47
2018-12-25T20:04:33.563Z,6.13
2018-12-25T20:07:34.351Z,6.63
2018-12-25T20:10:21.224Z,5.17
2018-12-25T20:13:47.537Z,6.90
2018-12-25T20:17:04.018Z,4.67
2018-12-25T20:20:09.975Z,4.50
2018-12-25T20:23:35.562Z,3.97
2018-12-25T20:26:40.653Z,4.63
2018-12-25T20:29:58.873Z,4.83
2018-12-25T20:32:59.704Z,4.97
2018-12-25T20:36:05.393Z,5.43
2018-12-25T20:39:26.647Z,5.47
2018-12-25T20:42:43.708Z,5.80
2018-12-25T20:46:07.928Z,7.20
2018-12-25T20:49:06.510Z,6.67
2018-12-25T20:52:39.702Z,5.67
2018-12-25T20:56:14.299Z,4.80
2018-12-25T20:59:31.561Z,5.23
2018-12-25T21:02:44.616Z,5.00
2018-12-25T21:05:51.764Z,5.93
2018-12-25T21:16:14.175Z,5.93
2018-12-25T21:19:44.740Z,5.60
2018-12-25T21:23:18.506Z,6.13
2018-12-25T21:26:27.937Z,5.63
2018-12-25T21:28:58.454Z,5.97
2018-12-25T21:31:44.174Z,5.20
2018-12-25T21:34:23.808Z,6.40
2018-12-25T21:37:06.487Z,6.50
2018-12-25T21:39:34.295Z,5.77
2018-12-25T21:42:16.848Z,5.67
2018-12-25T21:44:51.695Z,6.33
2018-12-25T21:47:33.068Z,6.13
2018-12-25T21:50:09.699Z,5.30
2018-12-25T21:52:43.231Z,6.97
2018-12-25T21:55:27.673Z,6.23
2018-12-25T21:58:08.695Z,6.23
2018-12-25T22:00:46.596Z,5.90
2018-12-25T22:03:30.618Z,5.20
2018-12-25T22:06:08.596Z,6.70
2018-12-25T22:08:41.599Z,6.70
2018-12-25T22:11:21.786Z,6.30
2018-12-25T22:14:01.245Z,5.73
2018-12-25T22:16:53.662Z,5.93
2018-12-25T22:19:39.186Z,6.40
2018-12-25T22:22:11.311Z,5.93
2018-12-25T22:24:42.323Z,6.47
2018-12-25T22:27:17.904Z,5.43
2018-12-25T22:29:54.573Z,5.33
2018-12-25T22:32:31.561Z,6.57
2018-12-25T22:35:19.193Z,5.63
2018-12-25T22:37:56.577Z,6.00
2018-12-25T22:40:35.717Z,6.03
2018-12-25T22:45:58.963Z,6.33
2018-12-25T22:48:31.872Z,5.83
2018-12-25T22:51:25.454Z,6.17
2018-12-25T22:53:47.910Z,5.50
2018-12-25T22:56:23.013Z,5.43
2018-12-25T22:58:56.866Z,5.63
2018-12-25T23:01:30.189Z,6.37
2018-12-25T23:04:05.167Z,7.08
2018-12-25T23:06:43.584Z,5.50
2018-12-25T23:09:27.054Z,5.63
2018-12-25T23:11:58.183Z,5.90
2018-12-25T23:14:47.856Z,5.60
2018-12-25T23:17:19.323Z,6.03
2018-12-25T23:20:01.509Z,5.33
2018-12-25T23:22:58.426Z,6.03
2018-12-25T23:25:28.707Z,6.30
2018-12-25T23:28:05.536Z,6.33
2018-12-25T23:30:39.513Z,4.03
2018-12-25T23:33:13.721Z,5.50
2018-12-25T23:35:43.664Z,5.23
2018-12-25T23:38:23.503Z,5.90
2018-12-25T23:41:06.471Z,5.17
2018-12-25T23:43:51.499Z,5.80
2018-12-25T23:46:30.090Z,4.63
2018-12-25T23:49:18.544Z,5.73
2018-12-25T23:51:53.268Z,5.47
2018-12-25T23:54:26.800Z,5.80
2018-12-25T23:57:08.553Z,5.93
2018-12-25T23:59:51.463Z,5.43
